sensor_id;sensor_type;location;lat;lon;timestamp;P1;durP1;ratioP1;P2;durP2;ratioP2
77838;SDS011;67034;43.226;27.932;2023-08-30T00:00:40;11.93;;;10.38;;
77838;SDS011;67034;43.226;27.932;2023-08-30T00:03:06;13.48;;;10.77;;
77838;SDS011;67034;43.226;27.932;2023-08-30T00:05:32;11.88;;;10.55;;
77838;SDS011;67034;43.226;27.932;2023-08-30T00:07:58;11.40;;;10.05;;
77838;SDS011;67034;43.226;27.932;2023-08-30T00:10:25;11.88;;;10.68;;
77838;SDS011;67034;43.226;27.932;2023-08-30T00:12:51;12.75;;;10.52;;
77838;SDS011;67034;43.226;27.932;2023-08-30T00:15:16;11.70;;;9.68;;
77838;SDS011;67034;43.226;27.932;2023-08-30T00:17:42;12.43;;;10.13;;
77838;SDS011;67034;43.226;27.932;2023-08-30T00:20:09;14.50;;;9.82;;
77838;SDS011;67034;43.226;27.932;2023-08-30T00:22:35;14.02;;;10.75;;
77838;SDS011;67034;43.226;27.932;2023-08-30T00:25:01;12.52;;;10.43;;
77838;SDS011;67034;43.226;27.932;2023-08-30T00:27:28;13.90;;;10.95;;
77838;SDS011;67034;43.226;27.932;2023-08-30T00:29:53;13.13;;;10.93;;
77838;SDS011;67034;43.226;27.932;2023-08-30T00:32:19;13.43;;;11.05;;
77838;SDS011;67034;43.226;27.932;2023-08-30T00:34:49;13.57;;;10.25;;
77838;SDS011;67034;43.226;27.932;2023-08-30T00:37:15;12.95;;;10.88;;
77838;SDS011;67034;43.226;27.932;2023-08-30T00:39:40;12.73;;;10.25;;
77838;SDS011;67034;43.226;27.932;2023-08-30T00:42:06;14.57;;;10.88;;
77838;SDS011;67034;43.226;27.932;2023-08-30T00:44:34;13.73;;;10.73;;
77838;SDS011;67034;43.226;27.932;2023-08-30T00:47:00;18.95;;;12.43;;
77838;SDS011;67034;43.226;27.932;2023-08-30T00:49:26;12.13;;;10.75;;
77838;SDS011;67034;43.226;27.932;2023-08-30T00:51:52;13.23;;;11.07;;
77838;SDS011;67034;43.226;27.932;2023-08-30T00:54:19;12.25;;;10.70;;
77838;SDS011;67034;43.226;27.932;2023-08-30T00:56:44;17.60;;;12.10;;
77838;SDS011;67034;43.226;27.932;2023-08-30T00:59:11;14.35;;;11.02;;
77838;SDS011;67034;43.226;27.932;2023-08-30T01:01:39;13.00;;;11.60;;
77838;SDS011;67034;43.226;27.932;2023-08-30T01:04:06;12.25;;;10.52;;
77838;SDS011;67034;43.226;27.932;2023-08-30T01:06:31;13.10;;;10.98;;
77838;SDS011;67034;43.226;27.932;2023-08-30T01:08:57;14.25;;;11.55;;
77838;SDS011;67034;43.226;27.932;2023-08-30T01:11:25;14.63;;;10.48;;
77838;SDS011;67034;43.226;27.932;2023-08-30T01:13:58;12.23;;;10.57;;
77838;SDS011;67034;43.226;27.932;2023-08-30T01:16:29;13.45;;;10.90;;
77838;SDS011;67034;43.226;27.932;2023-08-30T01:18:58;12.90;;;10.80;;
77838;SDS011;67034;43.226;27.932;2023-08-30T01:21:28;15.02;;;11.52;;
77838;SDS011;67034;43.226;27.932;2023-08-30T01:24:03;14.32;;;11.13;;
77838;SDS011;67034;43.226;27.932;2023-08-30T01:26:36;14.00;;;11.90;;
77838;SDS011;67034;43.226;27.932;2023-08-30T01:29:09;14.75;;;11.35;;
77838;SDS011;67034;43.226;27.932;2023-08-30T01:31:36;13.00;;;11.48;;
77838;SDS011;67034;43.226;27.932;2023-08-30T01:34:05;15.82;;;10.55;;
77838;SDS011;67034;43.226;27.932;2023-08-30T01:36:30;13.52;;;10.73;;
77838;SDS011;67034;43.226;27.932;2023-08-30T01:38:57;18.08;;;12.15;;
77838;SDS011;67034;43.226;27.932;2023-08-30T01:41:24;13.75;;;10.82;;
77838;SDS011;67034;43.226;27.932;2023-08-30T01:43:50;12.48;;;10.88;;
77838;SDS011;67034;43.226;27.932;2023-08-30T01:46:19;12.82;;;10.23;;
77838;SDS011;67034;43.226;27.932;2023-08-30T01:48:45;12.35;;;10.10;;
77838;SDS011;67034;43.226;27.932;2023-08-30T01:51:12;11.20;;;10.00;;
77838;SDS011;67034;43.226;27.932;2023-08-30T01:53:39;16.08;;;10.25;;
77838;SDS011;67034;43.226;27.932;2023-08-30T01:56:05;13.43;;;10.77;;
77838;SDS011;67034;43.226;27.932;2023-08-30T01:58:31;12.15;;;9.98;;
77838;SDS011;67034;43.226;27.932;2023-08-30T02:00:56;13.80;;;11.38;;
77838;SDS011;67034;43.226;27.932;2023-08-30T02:03:24;10.82;;;9.45;;
77838;SDS011;67034;43.226;27.932;2023-08-30T02:05:52;13.00;;;11.60;;
77838;SDS011;67034;43.226;27.932;2023-08-30T02:08:30;11.35;;;10.07;;
77838;SDS011;67034;43.226;27.932;2023-08-30T02:11:01;11.85;;;9.63;;
77838;SDS011;67034;43.226;27.932;2023-08-30T02:13:30;12.43;;;10.52;;
77838;SDS011;67034;43.226;27.932;2023-08-30T02:15:56;12.27;;;10.13;;
77838;SDS011;67034;43.226;27.932;2023-08-30T02:18:26;13.02;;;10.23;;
77838;SDS011;67034;43.226;27.932;2023-08-30T02:20:53;15.02;;;10.35;;
77838;SDS011;67034;43.226;27.932;2023-08-30T02:23:22;11.25;;;10.05;;
77838;SDS011;67034;43.226;27.932;2023-08-30T02:25:49;11.77;;;10.38;;
77838;SDS011;67034;43.226;27.932;2023-08-30T02:28:14;12.52;;;10.48;;
77838;SDS011;67034;43.226;27.932;2023-08-30T02:30:40;15.43;;;10.02;;
77838;SDS011;67034;43.226;27.932;2023-08-30T02:33:06;13.50;;;10.50;;
77838;SDS011;67034;43.226;27.932;2023-08-30T02:35:33;11.75;;;9.52;;
77838;SDS011;67034;43.226;27.932;2023-08-30T02:37:59;12.57;;;10.65;;
77838;SDS011;67034;43.226;27.932;2023-08-30T02:40:24;12.57;;;10.48;;
77838;SDS011;67034;43.226;27.932;2023-08-30T02:42:50;11.82;;;10.07;;
77838;SDS011;67034;43.226;27.932;2023-08-30T02:45:16;13.63;;;10.05;;
77838;SDS011;67034;43.226;27.932;2023-08-30T02:47:41;11.32;;;10.13;;
77838;SDS011;67034;43.226;27.932;2023-08-30T02:50:09;13.20;;;10.07;;
77838;SDS011;67034;43.226;27.932;2023-08-30T02:52:37;14.18;;;10.77;;
77838;SDS011;67034;43.226;27.932;2023-08-30T02:55:02;11.40;;;10.10;;
77838;SDS011;67034;43.226;27.932;2023-08-30T02:57:28;15.95;;;9.38;;
77838;SDS011;67034;43.226;27.932;2023-08-30T02:59:54;10.90;;;9.88;;
77838;SDS011;67034;43.226;27.932;2023-08-30T03:02:19;15.57;;;10.45;;
77838;SDS011;67034;43.226;27.932;2023-08-30T03:04:45;13.15;;;9.43;;
77838;SDS011;67034;43.226;27.932;2023-08-30T03:07:11;14.75;;;9.85;;
77838;SDS011;67034;43.226;27.932;2023-08-30T03:09:38;12.02;;;10.63;;
77838;SDS011;67034;43.226;27.932;2023-08-30T03:12:04;12.30;;;10.68;;
77838;SDS011;67034;43.226;27.932;2023-08-30T03:14:30;12.38;;;10.45;;
77838;SDS011;67034;43.226;27.932;2023-08-30T03:16:56;16.17;;;11.43;;
77838;SDS011;67034;43.226;27.932;2023-08-30T03:19:22;12.30;;;9.93;;
77838;SDS011;67034;43.226;27.932;2023-08-30T03:21:47;14.90;;;10.93;;
77838;SDS011;67034;43.226;27.932;2023-08-30T03:24:13;13.68;;;10.73;;
77838;SDS011;67034;43.226;27.932;2023-08-30T03:26:43;11.63;;;10.10;;
77838;SDS011;67034;43.226;27.932;2023-08-30T03:29:09;15.88;;;11.48;;
77838;SDS011;67034;43.226;27.932;2023-08-30T03:31:35;13.05;;;10.77;;
77838;SDS011;67034;43.226;27.932;2023-08-30T03:34:00;14.23;;;10.55;;
77838;SDS011;67034;43.226;27.932;2023-08-30T03:36:27;15.82;;;12.35;;
77838;SDS011;67034;43.226;27.932;2023-08-30T03:38:53;12.10;;;10.77;;
77838;SDS011;67034;43.226;27.932;2023-08-30T03:41:19;15.20;;;11.40;;
77838;SDS011;67034;43.226;27.932;2023-08-30T03:43:46;17.98;;;12.07;;
77838;SDS011;67034;43.226;27.932;2023-08-30T03:46:11;17.60;;;11.68;;
77838;SDS011;67034;43.226;27.932;2023-08-30T03:48:37;16.45;;;11.77;;
77838;SDS011;67034;43.226;27.932;2023-08-30T03:51:03;16.17;;;11.75;;
77838;SDS011;67034;43.226;27.932;2023-08-30T03:53:29;15.80;;;11.43;;
77838;SDS011;67034;43.226;27.932;2023-08-30T03:55:58;15.43;;;11.20;;
77838;SDS011;67034;43.226;27.932;2023-08-30T03:58:24;14.05;;;11.55;;
77838;SDS011;67034;43.226;27.932;2023-08-30T04:00:51;16.08;;;11.85;;
77838;SDS011;67034;43.226;27.932;2023-08-30T04:03:17;18.58;;;14.02;;
77838;SDS011;67034;43.226;27.932;2023-08-30T04:05:43;16.67;;;11.52;;
77838;SDS011;67034;43.226;27.932;2023-08-30T04:08:09;17.42;;;12.57;;
77838;SDS011;67034;43.226;27.932;2023-08-30T04:10:35;17.27;;;13.18;;
77838;SDS011;67034;43.226;27.932;2023-08-30T04:13:01;15.10;;;12.25;;
77838;SDS011;67034;43.226;27.932;2023-08-30T04:15:26;17.45;;;11.95;;
77838;SDS011;67034;43.226;27.932;2023-08-30T04:17:53;16.25;;;13.80;;
77838;SDS011;67034;43.226;27.932;2023-08-30T04:20:19;15.82;;;12.77;;
77838;SDS011;67034;43.226;27.932;2023-08-30T04:22:45;17.80;;;13.13;;
77838;SDS011;67034;43.226;27.932;2023-08-30T04:25:10;20.52;;;13.43;;
77838;SDS011;67034;43.226;27.932;2023-08-30T04:27:37;15.63;;;12.60;;
77838;SDS011;67034;43.226;27.932;2023-08-30T04:30:03;19.02;;;12.50;;
77838;SDS011;67034;43.226;27.932;2023-08-30T04:32:29;15.88;;;12.10;;
77838;SDS011;67034;43.226;27.932;2023-08-30T04:34:56;17.70;;;14.05;;
77838;SDS011;67034;43.226;27.932;2023-08-30T04:37:21;19.95;;;11.93;;
77838;SDS011;67034;43.226;27.932;2023-08-30T04:39:47;15.95;;;12.43;;
77838;SDS011;67034;43.226;27.932;2023-08-30T04:42:14;14.82;;;12.45;;
77838;SDS011;67034;43.226;27.932;2023-08-30T04:44:39;17.10;;;11.77;;
77838;SDS011;67034;43.226;27.932;2023-08-30T04:47:05;17.13;;;12.00;;
77838;SDS011;67034;43.226;27.932;2023-08-30T04:49:31;14.57;;;11.70;;
77838;SDS011;67034;43.226;27.932;2023-08-30T04:51:58;16.38;;;11.27;;
77838;SDS011;67034;43.226;27.932;2023-08-30T04:54:23;18.70;;;12.45;;
77838;SDS011;67034;43.226;27.932;2023-08-30T04:56:49;18.73;;;11.70;;
77838;SDS011;67034;43.226;27.932;2023-08-30T04:59:16;13.98;;;11.32;;
77838;SDS011;67034;43.226;27.932;2023-08-30T05:01:42;18.50;;;11.48;;
77838;SDS011;67034;43.226;27.932;2023-08-30T05:04:09;15.00;;;10.95;;
77838;SDS011;67034;43.226;27.932;2023-08-30T05:06:35;13.55;;;10.45;;
77838;SDS011;67034;43.226;27.932;2023-08-30T05:09:02;13.77;;;10.05;;
77838;SDS011;67034;43.226;27.932;2023-08-30T05:11:28;12.60;;;10.13;;
77838;SDS011;67034;43.226;27.932;2023-08-30T05:13:54;14.75;;;10.18;;
77838;SDS011;67034;43.226;27.932;2023-08-30T05:16:20;12.93;;;9.05;;
77838;SDS011;67034;43.226;27.932;2023-08-30T05:18:46;14.80;;;9.63;;
77838;SDS011;67034;43.226;27.932;2023-08-30T05:21:13;18.35;;;11.10;;
77838;SDS011;67034;43.226;27.932;2023-08-30T05:23:39;15.95;;;10.57;;
77838;SDS011;67034;43.226;27.932;2023-08-30T05:26:09;12.38;;;9.50;;
77838;SDS011;67034;43.226;27.932;2023-08-30T05:28:35;14.20;;;11.27;;
77838;SDS011;67034;43.226;27.932;2023-08-30T05:31:01;12.48;;;9.85;;
77838;SDS011;67034;43.226;27.932;2023-08-30T05:33:26;13.50;;;9.63;;
77838;SDS011;67034;43.226;27.932;2023-08-30T05:35:53;19.20;;;10.45;;
77838;SDS011;67034;43.226;27.932;2023-08-30T05:38:19;12.85;;;9.65;;
77838;SDS011;67034;43.226;27.932;2023-08-30T05:40:45;14.50;;;9.40;;
77838;SDS011;67034;43.226;27.932;2023-08-30T05:43:12;11.05;;;9.10;;
77838;SDS011;67034;43.226;27.932;2023-08-30T05:45:38;20.05;;;10.77;;
77838;SDS011;67034;43.226;27.932;2023-08-30T05:48:05;12.32;;;8.85;;
77838;SDS011;67034;43.226;27.932;2023-08-30T05:50:31;23.60;;;10.98;;
77838;SDS011;67034;43.226;27.932;2023-08-30T05:52:57;13.15;;;9.43;;
77838;SDS011;67034;43.226;27.932;2023-08-30T05:55:23;12.07;;;8.70;;
77838;SDS011;67034;43.226;27.932;2023-08-30T05:57:49;14.73;;;10.10;;
77838;SDS011;67034;43.226;27.932;2023-08-30T06:00:16;15.65;;;10.13;;
77838;SDS011;67034;43.226;27.932;2023-08-30T06:02:43;15.88;;;9.18;;
77838;SDS011;67034;43.226;27.932;2023-08-30T06:05:09;12.52;;;9.75;;
77838;SDS011;67034;43.226;27.932;2023-08-30T06:07:35;14.23;;;9.30;;
77838;SDS011;67034;43.226;27.932;2023-08-30T06:10:01;11.43;;;9.55;;
77838;SDS011;67034;43.226;27.932;2023-08-30T06:12:26;40.72;;;13.27;;
77838;SDS011;67034;43.226;27.932;2023-08-30T06:14:53;19.42;;;9.82;;
77838;SDS011;67034;43.226;27.932;2023-08-30T06:17:20;13.07;;;8.57;;
77838;SDS011;67034;43.226;27.932;2023-08-30T06:19:46;32.55;;;11.27;;
77838;SDS011;67034;43.226;27.932;2023-08-30T06:22:12;24.10;;;10.25;;
77838;SDS011;67034;43.226;27.932;2023-08-30T06:24:38;34.17;;;11.93;;
77838;SDS011;67034;43.226;27.932;2023-08-30T06:27:04;16.38;;;12.65;;
77838;SDS011;67034;43.226;27.932;2023-08-30T06:29:30;17.77;;;10.23;;
77838;SDS011;67034;43.226;27.932;2023-08-30T06:31:56;14.15;;;10.18;;
77838;SDS011;67034;43.226;27.932;2023-08-30T06:34:23;15.50;;;9.98;;
77838;SDS011;67034;43.226;27.932;2023-08-30T06:36:48;31.23;;;12.93;;
77838;SDS011;67034;43.226;27.932;2023-08-30T06:39:14;20.90;;;10.68;;
77838;SDS011;67034;43.226;27.932;2023-08-30T06:41:40;17.60;;;10.67;;
77838;SDS011;67034;43.226;27.932;2023-08-30T06:44:06;36.75;;;13.82;;
77838;SDS011;67034;43.226;27.932;2023-08-30T06:46:31;21.95;;;10.40;;
77838;SDS011;67034;43.226;27.932;2023-08-30T06:48:57;23.85;;;12.13;;
77838;SDS011;67034;43.226;27.932;2023-08-30T06:51:24;19.88;;;11.57;;
77838;SDS011;67034;43.226;27.932;2023-08-30T06:53:50;17.83;;;11.38;;
77838;SDS011;67034;43.226;27.932;2023-08-30T06:56:16;14.25;;;10.32;;
77838;SDS011;67034;43.226;27.932;2023-08-30T06:58:41;27.75;;;10.93;;
77838;SDS011;67034;43.226;27.932;2023-08-30T07:01:07;22.65;;;11.20;;
77838;SDS011;67034;43.226;27.932;2023-08-30T07:03:33;27.23;;;11.90;;
77838;SDS011;67034;43.226;27.932;2023-08-30T07:05:58;22.75;;;10.45;;
77838;SDS011;67034;43.226;27.932;2023-08-30T07:08:26;34.28;;;11.18;;
77838;SDS011;67034;43.226;27.932;2023-08-30T07:10:51;25.02;;;10.82;;
77838;SDS011;67034;43.226;27.932;2023-08-30T07:13:17;43.15;;;18.85;;
77838;SDS011;67034;43.226;27.932;2023-08-30T07:15:43;29.48;;;12.25;;
77838;SDS011;67034;43.226;27.932;2023-08-30T07:18:09;29.65;;;12.57;;
77838;SDS011;67034;43.226;27.932;2023-08-30T07:20:35;19.38;;;10.95;;
77838;SDS011;67034;43.226;27.932;2023-08-30T07:23:02;13.40;;;9.55;;
77838;SDS011;67034;43.226;27.932;2023-08-30T07:25:30;16.13;;;9.70;;
77838;SDS011;67034;43.226;27.932;2023-08-30T07:27:57;34.25;;;11.45;;
77838;SDS011;67034;43.226;27.932;2023-08-30T07:30:23;36.35;;;11.15;;
77838;SDS011;67034;43.226;27.932;2023-08-30T07:32:49;24.38;;;10.65;;
77838;SDS011;67034;43.226;27.932;2023-08-30T07:35:15;30.23;;;11.88;;
77838;SDS011;67034;43.226;27.932;2023-08-30T07:37:41;30.33;;;11.30;;
77838;SDS011;67034;43.226;27.932;2023-08-30T07:40:07;34.38;;;11.52;;
77838;SDS011;67034;43.226;27.932;2023-08-30T07:42:35;20.67;;;10.02;;
77838;SDS011;67034;43.226;27.932;2023-08-30T07:45:01;16.50;;;9.80;;
77838;SDS011;67034;43.226;27.932;2023-08-30T07:47:27;64.80;;;15.30;;
77838;SDS011;67034;43.226;27.932;2023-08-30T07:49:52;28.00;;;11.88;;
77838;SDS011;67034;43.226;27.932;2023-08-30T07:52:18;23.85;;;10.18;;
77838;SDS011;67034;43.226;27.932;2023-08-30T07:54:44;15.93;;;8.40;;
77838;SDS011;67034;43.226;27.932;2023-08-30T07:57:09;25.30;;;11.27;;
77838;SDS011;67034;43.226;27.932;2023-08-30T07:59:36;20.63;;;9.70;;
77838;SDS011;67034;43.226;27.932;2023-08-30T08:02:03;31.67;;;12.60;;
77838;SDS011;67034;43.226;27.932;2023-08-30T08:04:31;23.88;;;11.18;;
77838;SDS011;67034;43.226;27.932;2023-08-30T08:06:57;20.02;;;11.57;;
77838;SDS011;67034;43.226;27.932;2023-08-30T08:09:23;33.90;;;13.18;;
77838;SDS011;67034;43.226;27.932;2023-08-30T08:11:49;34.65;;;10.95;;
77838;SDS011;67034;43.226;27.932;2023-08-30T08:14:15;19.48;;;10.65;;
77838;SDS011;67034;43.226;27.932;2023-08-30T08:16:42;14.85;;;9.00;;
77838;SDS011;67034;43.226;27.932;2023-08-30T08:19:08;31.95;;;11.93;;
77838;SDS011;67034;43.226;27.932;2023-08-30T08:21:34;40.85;;;12.50;;
77838;SDS011;67034;43.226;27.932;2023-08-30T08:24:00;21.98;;;10.05;;
77838;SDS011;67034;43.226;27.932;2023-08-30T08:26:26;25.15;;;11.50;;
77838;SDS011;67034;43.226;27.932;2023-08-30T08:28:53;26.63;;;12.05;;
77838;SDS011;67034;43.226;27.932;2023-08-30T08:31:19;19.40;;;10.48;;
77838;SDS011;67034;43.226;27.932;2023-08-30T08:33:46;35.72;;;13.20;;
77838;SDS011;67034;43.226;27.932;2023-08-30T08:36:14;24.15;;;10.25;;
77838;SDS011;67034;43.226;27.932;2023-08-30T08:38:40;25.00;;;11.68;;
77838;SDS011;67034;43.226;27.932;2023-08-30T08:41:06;25.65;;;12.07;;
77838;SDS011;67034;43.226;27.932;2023-08-30T08:43:33;24.88;;;12.45;;
77838;SDS011;67034;43.226;27.932;2023-08-30T08:46:02;29.05;;;12.98;;
77838;SDS011;67034;43.226;27.932;2023-08-30T08:48:31;25.60;;;10.40;;
77838;SDS011;67034;43.226;27.932;2023-08-30T08:51:02;34.65;;;11.60;;
77838;SDS011;67034;43.226;27.932;2023-08-30T08:53:28;21.55;;;9.00;;
77838;SDS011;67034;43.226;27.932;2023-08-30T08:55:54;19.97;;;10.27;;
77838;SDS011;67034;43.226;27.932;2023-08-30T08:58:23;18.05;;;9.80;;
77838;SDS011;67034;43.226;27.932;2023-08-30T09:00:49;39.15;;;12.32;;
77838;SDS011;67034;43.226;27.932;2023-08-30T09:03:15;28.02;;;10.60;;
77838;SDS011;67034;43.226;27.932;2023-08-30T09:05:43;27.65;;;12.13;;
77838;SDS011;67034;43.226;27.932;2023-08-30T09:08:13;16.77;;;9.30;;
77838;SDS011;67034;43.226;27.932;2023-08-30T09:10:39;19.55;;;9.68;;
77838;SDS011;67034;43.226;27.932;2023-08-30T09:13:05;46.28;;;12.57;;
77838;SDS011;67034;43.226;27.932;2023-08-30T09:15:31;19.73;;;10.13;;
77838;SDS011;67034;43.226;27.932;2023-08-30T09:17:57;22.83;;;10.02;;
77838;SDS011;67034;43.226;27.932;2023-08-30T09:20:23;15.82;;;8.57;;
77838;SDS011;67034;43.226;27.932;2023-08-30T09:22:49;14.27;;;8.73;;
77838;SDS011;67034;43.226;27.932;2023-08-30T09:25:26;22.10;;;8.65;;
77838;SDS011;67034;43.226;27.932;2023-08-30T09:27:56;12.50;;;7.45;;
77838;SDS011;67034;43.226;27.932;2023-08-30T09:30:23;24.45;;;10.18;;
77838;SDS011;67034;43.226;27.932;2023-08-30T09:32:54;20.35;;;10.10;;
77838;SDS011;67034;43.226;27.932;2023-08-30T09:35:26;26.85;;;9.52;;
77838;SDS011;67034;43.226;27.932;2023-08-30T09:37:51;15.05;;;7.47;;
77838;SDS011;67034;43.226;27.932;2023-08-30T09:40:18;12.83;;;8.63;;
77838;SDS011;67034;43.226;27.932;2023-08-30T09:42:45;25.90;;;10.00;;
77838;SDS011;67034;43.226;27.932;2023-08-30T09:45:18;29.25;;;9.88;;
77838;SDS011;67034;43.226;27.932;2023-08-30T09:47:46;24.25;;;10.25;;
77838;SDS011;67034;43.226;27.932;2023-08-30T09:50:12;17.27;;;9.55;;
77838;SDS011;67034;43.226;27.932;2023-08-30T09:52:41;30.50;;;9.85;;
77838;SDS011;67034;43.226;27.932;2023-08-30T09:55:12;17.80;;;7.80;;
77838;SDS011;67034;43.226;27.932;2023-08-30T09:57:39;40.72;;;10.48;;
77838;SDS011;67034;43.226;27.932;2023-08-30T10:00:09;29.98;;;8.63;;
77838;SDS011;67034;43.226;27.932;2023-08-30T10:02:39;12.25;;;7.50;;
77838;SDS011;67034;43.226;27.932;2023-08-30T10:05:07;14.13;;;7.00;;
77838;SDS011;67034;43.226;27.932;2023-08-30T10:07:33;34.72;;;10.20;;
77838;SDS011;67034;43.226;27.932;2023-08-30T10:10:01;26.08;;;8.80;;
77838;SDS011;67034;43.226;27.932;2023-08-30T10:12:29;17.98;;;8.75;;
77838;SDS011;67034;43.226;27.932;2023-08-30T10:14:57;10.98;;;7.80;;
77838;SDS011;67034;43.226;27.932;2023-08-30T10:17:25;20.20;;;8.25;;
77838;SDS011;67034;43.226;27.932;2023-08-30T10:19:53;18.27;;;7.85;;
77838;SDS011;67034;43.226;27.932;2023-08-30T10:22:20;20.33;;;9.10;;
77838;SDS011;67034;43.226;27.932;2023-08-30T10:24:48;42.20;;;10.27;;
77838;SDS011;67034;43.226;27.932;2023-08-30T10:27:18;34.75;;;10.20;;
77838;SDS011;67034;43.226;27.932;2023-08-30T10:29:45;20.02;;;8.88;;
77838;SDS011;67034;43.226;27.932;2023-08-30T10:32:18;15.75;;;8.02;;
77838;SDS011;67034;43.226;27.932;2023-08-30T10:37:12;32.85;;;10.38;;
77838;SDS011;67034;43.226;27.932;2023-08-30T10:39:39;14.95;;;7.88;;
77838;SDS011;67034;43.226;27.932;2023-08-30T10:42:08;35.25;;;9.32;;
77838;SDS011;67034;43.226;27.932;2023-08-30T10:44:35;11.38;;;6.85;;
77838;SDS011;67034;43.226;27.932;2023-08-30T10:47:17;16.05;;;7.40;;
77838;SDS011;67034;43.226;27.932;2023-08-30T10:49:44;17.60;;;7.43;;
77838;SDS011;67034;43.226;27.932;2023-08-30T10:52:11;19.30;;;8.13;;
77838;SDS011;67034;43.226;27.932;2023-08-30T10:54:37;23.10;;;8.27;;
77838;SDS011;67034;43.226;27.932;2023-08-30T10:57:04;22.25;;;8.98;;
77838;SDS011;67034;43.226;27.932;2023-08-30T10:59:37;25.83;;;8.20;;
77838;SDS011;67034;43.226;27.932;2023-08-30T11:02:03;37.92;;;10.20;;
77838;SDS011;67034;43.226;27.932;2023-08-30T11:04:30;16.73;;;7.47;;
77838;SDS011;67034;43.226;27.932;2023-08-30T11:06:57;19.58;;;8.07;;
77838;SDS011;67034;43.226;27.932;2023-08-30T11:09:23;19.90;;;7.03;;
77838;SDS011;67034;43.226;27.932;2023-08-30T11:11:50;13.43;;;7.20;;
77838;SDS011;67034;43.226;27.932;2023-08-30T11:14:17;26.80;;;6.97;;
77838;SDS011;67034;43.226;27.932;2023-08-30T11:16:43;33.45;;;8.10;;
77838;SDS011;67034;43.226;27.932;2023-08-30T11:19:10;24.70;;;7.05;;
77838;SDS011;67034;43.226;27.932;2023-08-30T11:21:37;21.38;;;8.07;;
77838;SDS011;67034;43.226;27.932;2023-08-30T11:24:05;16.20;;;7.05;;
77838;SDS011;67034;43.226;27.932;2023-08-30T11:26:31;25.38;;;7.10;;
77838;SDS011;67034;43.226;27.932;2023-08-30T11:28:57;28.92;;;7.72;;
77838;SDS011;67034;43.226;27.932;2023-08-30T11:31:28;15.60;;;7.60;;
77838;SDS011;67034;43.226;27.932;2023-08-30T11:33:55;14.77;;;6.25;;
77838;SDS011;67034;43.226;27.932;2023-08-30T11:36:22;13.25;;;5.82;;
77838;SDS011;67034;43.226;27.932;2023-08-30T11:38:49;14.60;;;6.93;;
77838;SDS011;67034;43.226;27.932;2023-08-30T11:41:17;17.20;;;6.97;;
77838;SDS011;67034;43.226;27.932;2023-08-30T11:43:42;17.05;;;7.45;;
77838;SDS011;67034;43.226;27.932;2023-08-30T11:46:10;17.77;;;7.32;;
77838;SDS011;67034;43.226;27.932;2023-08-30T11:48:37;19.75;;;8.15;;
77838;SDS011;67034;43.226;27.932;2023-08-30T11:51:12;16.49;;;6.36;;
77838;SDS011;67034;43.226;27.932;2023-08-30T11:53:38;30.75;;;8.60;;
77838;SDS011;67034;43.226;27.932;2023-08-30T11:56:05;15.73;;;6.50;;
77838;SDS011;67034;43.226;27.932;2023-08-30T11:58:33;38.83;;;8.95;;
77838;SDS011;67034;43.226;27.932;2023-08-30T12:00:59;26.40;;;7.78;;
77838;SDS011;67034;43.226;27.932;2023-08-30T12:03:26;25.75;;;7.60;;
77838;SDS011;67034;43.226;27.932;2023-08-30T12:05:52;11.23;;;6.65;;
77838;SDS011;67034;43.226;27.932;2023-08-30T12:08:18;19.77;;;7.25;;
77838;SDS011;67034;43.226;27.932;2023-08-30T12:10:44;14.52;;;6.25;;
77838;SDS011;67034;43.226;27.932;2023-08-30T12:13:19;27.73;;;8.60;;
77838;SDS011;67034;43.226;27.932;2023-08-30T12:15:47;21.30;;;7.43;;
77838;SDS011;67034;43.226;27.932;2023-08-30T12:18:13;23.85;;;8.52;;
77838;SDS011;67034;43.226;27.932;2023-08-30T12:20:39;18.33;;;7.68;;
77838;SDS011;67034;43.226;27.932;2023-08-30T12:23:05;18.23;;;7.70;;
77838;SDS011;67034;43.226;27.932;2023-08-30T12:25:30;22.73;;;7.78;;
77838;SDS011;67034;43.226;27.932;2023-08-30T12:27:58;17.70;;;8.30;;
77838;SDS011;67034;43.226;27.932;2023-08-30T12:30:23;10.50;;;5.68;;
77838;SDS011;67034;43.226;27.932;2023-08-30T12:32:59;17.08;;;7.50;;
77838;SDS011;67034;43.226;27.932;2023-08-30T12:35:26;16.73;;;6.97;;
77838;SDS011;67034;43.226;27.932;2023-08-30T12:37:52;19.38;;;7.47;;
77838;SDS011;67034;43.226;27.932;2023-08-30T12:40:18;18.05;;;6.32;;
77838;SDS011;67034;43.226;27.932;2023-08-30T12:42:43;22.27;;;7.43;;
77838;SDS011;67034;43.226;27.932;2023-08-30T12:45:10;15.43;;;7.00;;
77838;SDS011;67034;43.226;27.932;2023-08-30T12:47:35;16.55;;;7.70;;
77838;SDS011;67034;43.226;27.932;2023-08-30T12:50:03;18.95;;;7.80;;
77838;SDS011;67034;43.226;27.932;2023-08-30T12:52:29;16.42;;;6.68;;
77838;SDS011;67034;43.226;27.932;2023-08-30T12:54:54;45.28;;;9.25;;
77838;SDS011;67034;43.226;27.932;2023-08-30T12:57:20;17.73;;;6.70;;
77838;SDS011;67034;43.226;27.932;2023-08-30T12:59:46;21.52;;;8.40;;
77838;SDS011;67034;43.226;27.932;2023-08-30T13:02:12;15.98;;;7.70;;
77838;SDS011;67034;43.226;27.932;2023-08-30T13:04:37;20.33;;;7.10;;
77838;SDS011;67034;43.226;27.932;2023-08-30T13:07:05;19.35;;;7.25;;
77838;SDS011;67034;43.226;27.932;2023-08-30T13:09:31;17.00;;;7.25;;
77838;SDS011;67034;43.226;27.932;2023-08-30T13:11:57;15.80;;;7.57;;
77838;SDS011;67034;43.226;27.932;2023-08-30T13:14:23;16.67;;;7.35;;
77838;SDS011;67034;43.226;27.932;2023-08-30T13:16:49;26.02;;;6.80;;
77838;SDS011;67034;43.226;27.932;2023-08-30T13:19:15;25.60;;;7.30;;
77838;SDS011;67034;43.226;27.932;2023-08-30T13:21:40;35.03;;;8.20;;
77838;SDS011;67034;43.226;27.932;2023-08-30T13:24:09;24.67;;;8.43;;
77838;SDS011;67034;43.226;27.932;2023-08-30T13:26:35;36.05;;;8.75;;
77838;SDS011;67034;43.226;27.932;2023-08-30T13:29:00;24.27;;;7.85;;
77838;SDS011;67034;43.226;27.932;2023-08-30T13:31:27;19.52;;;7.30;;
77838;SDS011;67034;43.226;27.932;2023-08-30T13:33:53;23.10;;;8.27;;
77838;SDS011;67034;43.226;27.932;2023-08-30T13:36:18;30.80;;;7.88;;
77838;SDS011;67034;43.226;27.932;2023-08-30T13:38:44;21.73;;;7.30;;
77838;SDS011;67034;43.226;27.932;2023-08-30T13:41:11;16.33;;;6.57;;
77838;SDS011;67034;43.226;27.932;2023-08-30T13:43:37;22.35;;;7.82;;
77838;SDS011;67034;43.226;27.932;2023-08-30T13:46:03;27.33;;;8.02;;
77838;SDS011;67034;43.226;27.932;2023-08-30T13:48:29;24.67;;;7.80;;
77838;SDS011;67034;43.226;27.932;2023-08-30T13:50:55;21.60;;;7.85;;
77838;SDS011;67034;43.226;27.932;2023-08-30T13:53:21;28.48;;;7.63;;
77838;SDS011;67034;43.226;27.932;2023-08-30T13:55:46;13.32;;;5.85;;
77838;SDS011;67034;43.226;27.932;2023-08-30T13:58:16;22.13;;;7.72;;
77838;SDS011;67034;43.226;27.932;2023-08-30T14:00:43;18.42;;;7.15;;
77838;SDS011;67034;43.226;27.932;2023-08-30T14:03:09;20.08;;;7.75;;
77838;SDS011;67034;43.226;27.932;2023-08-30T14:05:35;17.05;;;6.45;;
77838;SDS011;67034;43.226;27.932;2023-08-30T14:08:01;27.75;;;7.85;;
77838;SDS011;67034;43.226;27.932;2023-08-30T14:10:27;17.58;;;7.22;;
77838;SDS011;67034;43.226;27.932;2023-08-30T14:12:53;28.38;;;8.65;;